Dunbarton, New Hampshire
Current Conditions -  °F | °C
As of 10:51 PM on Tuesday 21 Oct 2014 (Local Time) from KCON Reporting Station
Light Rain Light Rain  
Wind Chill: 47°   Ceiling: 1300
Heat Index: 49°   Visibility: 10mi
Dew Point: 46°   Wind: 5mph
Humidity: 90%   Direction: 20°NNE
Pressure: 30.04"   Gusts: NA
Location:  43.11°N, 71.59°W
Report Text: KCON 220251Z AUTO 02004KT 10SM -RA OVC013 09/08 A3004 RMK AO2 RAB30 SLP174 P0000 60000 T00940078 51017
Loading
Personal Weather Stations






























Interactive Weather Map
Tropical Storm Tracking
New forecast layout! Learn more

10-Day Weather Forecast

Advertisements
Track Severe Weather on mobile